sensor_id;sensor_type;location;lat;lon;timestamp;pressure;altitude;pressure_sealevel;temperature;humidity
10145;BME280;5113;41.822;23.564;2024-03-17T00:01:05;-11387.78;;;16.38;48.02
10145;BME280;5113;41.822;23.564;2024-03-17T00:04:12;-11408.78;;;17.13;46.59
10145;BME280;5113;41.822;23.564;2024-03-17T00:07:17;-11418.66;;;17.49;45.06
10145;BME280;5113;41.822;23.564;2024-03-17T00:10:21;-11399.47;;;16.80;45.92
10145;BME280;5113;41.822;23.564;2024-03-17T00:13:27;-11429.38;;;17.88;44.77
10145;BME280;5113;41.822;23.564;2024-03-17T00:16:31;-11432.19;;;17.98;44.39
10145;BME280;5113;41.822;23.564;2024-03-17T00:19:38;-11425.41;;;17.73;45.44
10145;BME280;5113;41.822;23.564;2024-03-17T00:22:43;-11401.03;;;16.86;46.58
10145;BME280;5113;41.822;23.564;2024-03-17T00:25:50;-11426.53;;;17.77;45.21
10145;BME280;5113;41.822;23.564;2024-03-17T00:28:55;-11422.16;;;17.62;45.53
10145;BME280;5113;41.822;23.564;2024-03-17T00:32:00;-11435.84;;;18.11;44.91
10145;BME280;5113;41.822;23.564;2024-03-17T00:35:07;-11431.63;;;17.96;45.35
10145;BME280;5113;41.822;23.564;2024-03-17T00:38:12;-11430.22;;;17.91;45.44
10145;BME280;5113;41.822;23.564;2024-03-17T00:41:17;-11414.00;;;17.32;45.95
10145;BME280;5113;41.822;23.564;2024-03-17T00:44:25;-11438.25;;;18.20;44.62
10145;BME280;5113;41.822;23.564;2024-03-17T00:47:29;-11421.03;;;17.58;45.50
10145;BME280;5113;41.822;23.564;2024-03-17T00:50:35;-11415.53;;;17.38;46.13
10145;BME280;5113;41.822;23.564;2024-03-17T00:53:41;-11409.06;;;17.14;44.81
10145;BME280;5113;41.822;23.564;2024-03-17T00:56:45;-11420.34;;;17.55;44.04
10145;BME280;5113;41.822;23.564;2024-03-17T00:59:51;-11416.38;;;17.41;44.33
10145;BME280;5113;41.822;23.564;2024-03-17T01:02:57;-11431.47;;;17.95;43.33
10145;BME280;5113;41.822;23.564;2024-03-17T01:06:05;-11424.00;;;17.68;44.17
10145;BME280;5113;41.822;23.564;2024-03-17T01:09:10;-11424.56;;;17.70;44.57
10145;BME280;5113;41.822;23.564;2024-03-17T01:12:15;-11436.41;;;18.13;43.94
10145;BME280;5113;41.822;23.564;2024-03-17T01:15:20;-11406.81;;;17.06;46.51
10145;BME280;5113;41.822;23.564;2024-03-17T01:18:26;-11421.59;;;17.60;45.02
10145;BME280;5113;41.822;23.564;2024-03-17T01:21:32;-11383.13;;;16.21;47.63
10145;BME280;5113;41.822;23.564;2024-03-17T01:24:37;-11384.41;;;16.26;47.86
10145;BME280;5113;41.822;23.564;2024-03-17T01:27:45;-11380.03;;;16.10;47.20
10145;BME280;5113;41.822;23.564;2024-03-17T01:30:50;-11393.41;;;16.58;46.81
10145;BME280;5113;41.822;23.564;2024-03-17T01:33:55;-11395.53;;;16.66;46.93
10145;BME280;5113;41.822;23.564;2024-03-17T01:37:02;-11425.28;;;17.73;45.18
10145;BME280;5113;41.822;23.564;2024-03-17T01:40:08;-11411.88;;;17.25;45.49
10145;BME280;5113;41.822;23.564;2024-03-17T01:43:14;-11406.66;;;17.06;45.36
10145;BME280;5113;41.822;23.564;2024-03-17T01:46:18;-11408.50;;;17.12;45.02
10145;BME280;5113;41.822;23.564;2024-03-17T01:49:25;-11426.81;;;17.78;44.10
10145;BME280;5113;41.822;23.564;2024-03-17T01:52:32;-11417.78;;;17.46;44.67
10145;BME280;5113;41.822;23.564;2024-03-17T01:55:38;-11422.16;;;17.62;44.62
10145;BME280;5113;41.822;23.564;2024-03-17T01:58:44;-11407.94;;;17.10;46.06
10145;BME280;5113;41.822;23.564;2024-03-17T02:01:49;-11357.22;;;15.28;49.36
10145;BME280;5113;41.822;23.564;2024-03-17T02:04:54;-11372.56;;;15.83;48.15
10145;BME280;5113;41.822;23.564;2024-03-17T02:08:01;-11347.34;;;14.92;50.34
10145;BME280;5113;41.822;23.564;2024-03-17T02:11:11;-11359.87;;;15.37;49.54
10145;BME280;5113;41.822;23.564;2024-03-17T02:14:27;-11386.50;;;16.33;47.19
10145;BME280;5113;41.822;23.564;2024-03-17T02:17:33;-11350.72;;;15.04;49.69
10145;BME280;5113;41.822;23.564;2024-03-17T02:20:38;-11366.22;;;15.60;49.28
10145;BME280;5113;41.822;23.564;2024-03-17T02:24:04;-11354.81;;;15.19;50.32
10145;BME280;5113;41.822;23.564;2024-03-17T02:27:09;-11322.28;;;14.02;51.89
10145;BME280;5113;41.822;23.564;2024-03-17T02:30:15;-11359.47;;;15.36;48.95
10145;BME280;5113;41.822;23.564;2024-03-17T02:33:20;-11372.84;;;15.84;47.95
10145;BME280;5113;41.822;23.564;2024-03-17T02:36:27;-11378.75;;;16.05;48.07
10145;BME280;5113;41.822;23.564;2024-03-17T02:39:33;-11393.28;;;16.58;47.16
10145;BME280;5113;41.822;23.564;2024-03-17T02:42:38;-11344.25;;;14.81;50.32
10145;BME280;5113;41.822;23.564;2024-03-17T02:45:45;-11373.84;;;15.88;48.69
10145;BME280;5113;41.822;23.564;2024-03-17T02:48:52;-11404.00;;;16.96;46.25
10145;BME280;5113;41.822;23.564;2024-03-17T02:51:57;-11398.63;;;16.77;46.10
10145;BME280;5113;41.822;23.564;2024-03-17T02:55:06;-11410.91;;;17.21;45.29
10145;BME280;5113;41.822;23.564;2024-03-17T02:58:11;-11405.97;;;17.03;45.21
10145;BME280;5113;41.822;23.564;2024-03-17T03:01:16;-11389.91;;;16.45;46.33
10145;BME280;5113;41.822;23.564;2024-03-17T03:04:21;-11382.44;;;16.18;46.72
10145;BME280;5113;41.822;23.564;2024-03-17T03:07:27;-11413.16;;;17.29;45.03
10145;BME280;5113;41.822;23.564;2024-03-17T03:10:34;-11388.19;;;16.39;46.96
10145;BME280;5113;41.822;23.564;2024-03-17T03:13:41;-11346.22;;;14.88;50.10
10145;BME280;5113;41.822;23.564;2024-03-17T03:16:47;-11388.19;;;16.39;47.37
10145;BME280;5113;41.822;23.564;2024-03-17T03:19:53;-11398.06;;;16.75;46.39
10145;BME280;5113;41.822;23.564;2024-03-17T03:22:59;-11377.63;;;16.01;47.80
10145;BME280;5113;41.822;23.564;2024-03-17T03:26:07;-11383.69;;;16.23;48.02
10145;BME280;5113;41.822;23.564;2024-03-17T03:29:13;-11385.81;;;16.31;47.39
10145;BME280;5113;41.822;23.564;2024-03-17T03:32:19;-11394.97;;;16.64;46.52
10145;BME280;5113;41.822;23.564;2024-03-17T03:35:24;-11405.81;;;17.03;46.48
10145;BME280;5113;41.822;23.564;2024-03-17T03:38:33;-11371.28;;;15.78;48.23
10145;BME280;5113;41.822;23.564;2024-03-17T03:41:39;-11424.16;;;17.69;45.14
10145;BME280;5113;41.822;23.564;2024-03-17T03:44:46;-11419.63;;;17.53;45.48
10145;BME280;5113;41.822;23.564;2024-03-17T03:47:52;-11390.88;;;16.49;47.94
10145;BME280;5113;41.822;23.564;2024-03-17T03:50:58;-11403.72;;;16.95;46.75
10145;BME280;5113;41.822;23.564;2024-03-17T03:54:03;-11421.31;;;17.59;45.04
10145;BME280;5113;41.822;23.564;2024-03-17T03:57:11;-11422.31;;;17.62;45.41
10145;BME280;5113;41.822;23.564;2024-03-17T04:00:17;-11434.44;;;18.06;44.58
10145;BME280;5113;41.822;23.564;2024-03-17T04:03:25;-11429.09;;;17.87;44.71
10145;BME280;5113;41.822;23.564;2024-03-17T04:06:31;-11427.38;;;17.80;44.89
10145;BME280;5113;41.822;23.564;2024-03-17T04:09:36;-11435.97;;;18.11;43.98
10145;BME280;5113;41.822;23.564;2024-03-17T04:12:43;-11422.59;;;17.63;45.56
10145;BME280;5113;41.822;23.564;2024-03-17T04:15:48;-11422.59;;;17.63;44.87
10145;BME280;5113;41.822;23.564;2024-03-17T04:18:56;-11414.13;;;17.33;45.54
10145;BME280;5113;41.822;23.564;2024-03-17T04:22:01;-11416.38;;;17.41;45.53
10145;BME280;5113;41.822;23.564;2024-03-17T04:25:07;-11444.03;;;18.40;43.83
10145;BME280;5113;41.822;23.564;2024-03-17T04:28:14;-11449.94;;;18.62;43.50
10145;BME280;5113;41.822;23.564;2024-03-17T04:31:20;-11432.47;;;17.99;44.46
10145;BME280;5113;41.822;23.564;2024-03-17T04:34:25;-11422.88;;;17.64;45.34
10145;BME280;5113;41.822;23.564;2024-03-17T04:37:30;-11426.81;;;17.78;44.72
10145;BME280;5113;41.822;23.564;2024-03-17T04:40:42;-11401.72;;;16.88;47.16
10145;BME280;5113;41.822;23.564;2024-03-17T04:43:49;-11394.41;;;16.62;47.78
10145;BME280;5113;41.822;23.564;2024-03-17T04:46:54;-11405.13;;;17.00;47.06
10145;BME280;5113;41.822;23.564;2024-03-17T04:50:00;-11385.25;;;16.29;48.58
10145;BME280;5113;41.822;23.564;2024-03-17T04:53:05;-11409.34;;;17.15;47.09
10145;BME280;5113;41.822;23.564;2024-03-17T04:56:10;-11385.09;;;16.28;48.18
10145;BME280;5113;41.822;23.564;2024-03-17T04:59:17;-11429.66;;;17.89;45.95
10145;BME280;5113;41.822;23.564;2024-03-17T05:02:22;-11432.47;;;17.99;44.93
10145;BME280;5113;41.822;23.564;2024-03-17T05:05:28;-11408.91;;;17.14;46.50
10145;BME280;5113;41.822;23.564;2024-03-17T05:08:34;-11438.66;;;18.21;44.92
10145;BME280;5113;41.822;23.564;2024-03-17T05:11:40;-11405.13;;;17.00;46.65
10145;BME280;5113;41.822;23.564;2024-03-17T05:14:47;-11374.41;;;15.90;49.84
10145;BME280;5113;41.822;23.564;2024-03-17T05:17:52;-11437.97;;;18.19;45.20
10145;BME280;5113;41.822;23.564;2024-03-17T05:20:57;-11444.88;;;18.43;44.80
10145;BME280;5113;41.822;23.564;2024-03-17T05:24:04;-11427.66;;;17.81;45.01
10145;BME280;5113;41.822;23.564;2024-03-17T05:27:10;-11417.78;;;17.46;46.18
10145;BME280;5113;41.822;23.564;2024-03-17T05:30:16;-11453.34;;;18.74;44.31
10145;BME280;5113;41.822;23.564;2024-03-17T05:33:22;-11401.59;;;16.88;47.83
10145;BME280;5113;41.822;23.564;2024-03-17T05:36:28;-11416.94;;;17.43;46.25
10145;BME280;5113;41.822;23.564;2024-03-17T05:39:36;-11393.56;;;16.59;48.74
10145;BME280;5113;41.822;23.564;2024-03-17T05:42:41;-11433.16;;;18.01;45.54
10145;BME280;5113;41.822;23.564;2024-03-17T05:45:48;-11433.03;;;18.01;45.92
10145;BME280;5113;41.822;23.564;2024-03-17T05:48:53;-11468.00;;;19.27;43.21
10145;BME280;5113;41.822;23.564;2024-03-17T05:51:59;-11420.75;;;17.57;46.44
10145;BME280;5113;41.822;23.564;2024-03-17T05:55:05;-11407.38;;;17.08;47.50
10145;BME280;5113;41.822;23.564;2024-03-17T05:58:11;-11429.66;;;17.89;46.27
10145;BME280;5113;41.822;23.564;2024-03-17T06:01:18;-11444.03;;;18.40;45.31
10145;BME280;5113;41.822;23.564;2024-03-17T06:04:26;-11433.88;;;18.04;45.23
10145;BME280;5113;41.822;23.564;2024-03-17T06:07:31;-11416.53;;;17.41;46.26
10145;BME280;5113;41.822;23.564;2024-03-17T06:10:37;-11460.25;;;18.99;44.18
10145;BME280;5113;41.822;23.564;2024-03-17T06:13:44;-11414.00;;;17.32;46.15
10145;BME280;5113;41.822;23.564;2024-03-17T06:16:50;-11419.63;;;17.53;46.56
10145;BME280;5113;41.822;23.564;2024-03-17T06:19:55;-11455.31;;;18.81;44.45
10145;BME280;5113;41.822;23.564;2024-03-17T06:23:01;-11404.84;;;16.99;47.39
10145;BME280;5113;41.822;23.564;2024-03-17T06:26:06;-11440.34;;;18.27;45.20
10145;BME280;5113;41.822;23.564;2024-03-17T06:29:17;-11475.06;;;19.52;43.02
10145;BME280;5113;41.822;23.564;2024-03-17T06:32:24;-11446.00;;;18.47;45.10
10145;BME280;5113;41.822;23.564;2024-03-17T06:35:29;-11436.41;;;18.13;44.77
10145;BME280;5113;41.822;23.564;2024-03-17T06:38:35;-11455.88;;;18.83;43.85
10145;BME280;5113;41.822;23.564;2024-03-17T06:41:40;-11478.16;;;19.63;42.69
10145;BME280;5113;41.822;23.564;2024-03-17T06:44:45;-11459.69;;;18.97;43.66
10145;BME280;5113;41.822;23.564;2024-03-17T06:47:52;-11438.38;;;18.20;45.13
10145;BME280;5113;41.822;23.564;2024-03-17T06:50:59;-11460.94;;;19.01;43.41
10145;BME280;5113;41.822;23.564;2024-03-17T06:54:05;-11473.63;;;19.47;42.70
10145;BME280;5113;41.822;23.564;2024-03-17T06:57:10;-11473.91;;;19.48;42.73
10145;BME280;5113;41.822;23.564;2024-03-17T07:00:16;-11480.25;;;19.71;42.54
10145;BME280;5113;41.822;23.564;2024-03-17T07:03:24;-11496.75;;;20.30;41.53
10145;BME280;5113;41.822;23.564;2024-03-17T07:06:30;-11457.00;;;18.87;43.53
10145;BME280;5113;41.822;23.564;2024-03-17T07:09:36;-11424.28;;;17.69;46.10
10145;BME280;5113;41.822;23.564;2024-03-17T07:12:42;-11473.34;;;19.46;43.11
10145;BME280;5113;41.822;23.564;2024-03-17T07:15:48;-11506.50;;;20.65;41.35
10145;BME280;5113;41.822;23.564;2024-03-17T07:18:55;-11532.03;;;21.57;40.33
10145;BME280;5113;41.822;23.564;2024-03-17T07:22:01;-11475.63;;;19.54;42.18
10145;BME280;5113;41.822;23.564;2024-03-17T07:25:07;-11447.13;;;18.52;45.11
10145;BME280;5113;41.822;23.564;2024-03-17T07:28:13;-11473.50;;;19.46;42.75
10145;BME280;5113;41.822;23.564;2024-03-17T07:31:18;-11501.28;;;20.47;40.95
10145;BME280;5113;41.822;23.564;2024-03-17T07:34:25;-11528.09;;;21.43;39.80
10145;BME280;5113;41.822;23.564;2024-03-17T07:37:32;-11520.19;;;21.15;40.42
10145;BME280;5113;41.822;23.564;2024-03-17T07:40:37;-11555.19;;;22.40;38.70
10145;BME280;5113;41.822;23.564;2024-03-17T07:43:43;-11501.56;;;20.48;40.93
10145;BME280;5113;41.822;23.564;2024-03-17T07:46:48;-11481.66;;;19.76;41.03
10145;BME280;5113;41.822;23.564;2024-03-17T07:49:55;-11530.34;;;21.51;38.67
10145;BME280;5113;41.822;23.564;2024-03-17T07:53:03;-11535.56;;;21.70;38.72
10145;BME280;5113;41.822;23.564;2024-03-17T07:56:10;-11539.94;;;21.86;38.88
10145;BME280;5113;41.822;23.564;2024-03-17T07:59:16;-11479.00;;;19.66;41.55
10145;BME280;5113;41.822;23.564;2024-03-17T08:02:21;-11510.31;;;20.79;40.25
10145;BME280;5113;41.822;23.564;2024-03-17T08:05:28;-11526.25;;;21.36;39.08
10145;BME280;5113;41.822;23.564;2024-03-17T08:08:34;-11557.16;;;22.48;38.10
10145;BME280;5113;41.822;23.564;2024-03-17T08:11:40;-11499.31;;;20.39;40.05
10145;BME280;5113;41.822;23.564;2024-03-17T08:14:50;-11537.81;;;21.78;37.52
10145;BME280;5113;41.822;23.564;2024-03-17T08:17:55;-11541.63;;;21.92;37.45
10145;BME280;5113;41.822;23.564;2024-03-17T08:21:03;-11550.81;;;22.25;36.89
10145;BME280;5113;41.822;23.564;2024-03-17T08:24:09;-11549.81;;;22.21;37.36
10145;BME280;5113;41.822;23.564;2024-03-17T08:27:15;-11530.91;;;21.53;39.08
10145;BME280;5113;41.822;23.564;2024-03-17T08:30:21;-11545.00;;;22.04;37.38
10145;BME280;5113;41.822;23.564;2024-03-17T08:33:27;-11533.44;;;21.62;37.35
10145;BME280;5113;41.822;23.564;2024-03-17T08:36:34;-11501.00;;;20.46;39.00
10145;BME280;5113;41.822;23.564;2024-03-17T08:39:39;-11545.44;;;22.05;36.28
10145;BME280;5113;41.822;23.564;2024-03-17T08:42:44;-11541.34;;;21.91;36.92
10145;BME280;5113;41.822;23.564;2024-03-17T08:45:59;-11565.47;;;22.78;35.81
10145;BME280;5113;41.822;23.564;2024-03-17T08:49:06;-11534.84;;;21.67;36.83
10145;BME280;5113;41.822;23.564;2024-03-17T08:52:13;-11553.63;;;22.35;36.37
10145;BME280;5113;41.822;23.564;2024-03-17T08:55:19;-11525.97;;;21.35;37.04
10145;BME280;5113;41.822;23.564;2024-03-17T08:58:25;-11571.56;;;22.99;35.11
10145;BME280;5113;41.822;23.564;2024-03-17T09:01:30;-11530.06;;;21.50;36.90
10145;BME280;5113;41.822;23.564;2024-03-17T09:04:36;-11550.25;;;22.23;35.06
10145;BME280;5113;41.822;23.564;2024-03-17T09:07:44;-11556.44;;;22.45;36.13
10145;BME280;5113;41.822;23.564;2024-03-17T09:10:50;-11525.69;;;21.34;36.38
10145;BME280;5113;41.822;23.564;2024-03-17T09:13:56;-11582.28;;;23.38;34.38
10145;BME280;5113;41.822;23.564;2024-03-17T09:17:02;-11566.88;;;22.83;35.46
10145;BME280;5113;41.822;23.564;2024-03-17T09:20:12;-11554.06;;;22.36;35.99
10145;BME280;5113;41.822;23.564;2024-03-17T09:23:20;-11616.16;;;24.60;33.04
10145;BME280;5113;41.822;23.564;2024-03-17T09:26:26;-11551.09;;;22.26;35.87
10145;BME280;5113;41.822;23.564;2024-03-17T09:29:31;-11581.00;;;23.33;34.76
10145;BME280;5113;41.822;23.564;2024-03-17T09:32:37;-11555.19;;;22.40;33.88
10145;BME280;5113;41.822;23.564;2024-03-17T09:35:43;-11542.19;;;21.94;33.71
10145;BME280;5113;41.822;23.564;2024-03-17T09:38:50;-11609.09;;;24.34;31.02
10145;BME280;5113;41.822;23.564;2024-03-17T09:41:56;-11633.66;;;25.23;30.63
10145;BME280;5113;41.822;23.564;2024-03-17T09:45:04;-11636.50;;;25.33;29.99
10145;BME280;5113;41.822;23.564;2024-03-17T09:48:14;-11554.63;;;22.38;32.37
10145;BME280;5113;41.822;23.564;2024-03-17T09:51:22;-11592.28;;;23.74;30.98
10145;BME280;5113;41.822;23.564;2024-03-17T09:54:30;-11640.44;;;25.47;27.73
10145;BME280;5113;41.822;23.564;2024-03-17T09:57:36;-11631.69;;;25.16;27.55
10145;BME280;5113;41.822;23.564;2024-03-17T10:00:42;-11616.84;;;24.62;28.64
10145;BME280;5113;41.822;23.564;2024-03-17T10:03:48;-11593.28;;;23.78;29.45
10145;BME280;5113;41.822;23.564;2024-03-17T10:06:55;-11600.63;;;24.04;29.73
10145;BME280;5113;41.822;23.564;2024-03-17T10:10:12;-11634.94;;;25.27;28.09
10145;BME280;5113;41.822;23.564;2024-03-17T10:13:20;-11593.84;;;23.80;28.70
10145;BME280;5113;41.822;23.564;2024-03-17T10:16:26;-11590.59;;;23.68;29.69
10145;BME280;5113;41.822;23.564;2024-03-17T10:19:33;-11615.59;;;24.58;29.39
10145;BME280;5113;41.822;23.564;2024-03-17T10:23:03;-11584.09;;;23.45;30.08
10145;BME280;5113;41.822;23.564;2024-03-17T10:26:14;-11621.38;;;24.79;28.30
10145;BME280;5113;41.822;23.564;2024-03-17T10:29:23;-11614.19;;;24.53;28.74
10145;BME280;5113;41.822;23.564;2024-03-17T10:32:30;-11662.19;;;26.25;28.02
10145;BME280;5113;41.822;23.564;2024-03-17T10:35:36;-11523.44;;;21.26;32.11
10145;BME280;5113;41.822;23.564;2024-03-17T10:38:51;-11579.72;;;23.29;30.34
10145;BME280;5113;41.822;23.564;2024-03-17T10:41:59;-11556.88;;;22.47;29.67
10145;BME280;5113;41.822;23.564;2024-03-17T10:45:08;-11592.72;;;23.76;29.36
10145;BME280;5113;41.822;23.564;2024-03-17T10:48:19;-11615.72;;;24.58;29.81
10145;BME280;5113;41.822;23.564;2024-03-17T10:51:26;-11616.84;;;24.62;27.98
10145;BME280;5113;41.822;23.564;2024-03-17T10:54:33;-11609.81;;;24.37;28.68
10145;BME280;5113;41.822;23.564;2024-03-17T10:57:44;-11648.91;;;25.78;27.28
10145;BME280;5113;41.822;23.564;2024-03-17T11:00:50;-11592.72;;;23.76;30.74
10145;BME280;5113;41.822;23.564;2024-03-17T11:03:57;-11569.72;;;22.93;32.73
10145;BME280;5113;41.822;23.564;2024-03-17T11:07:04;-11610.66;;;24.40;31.47
10145;BME280;5113;41.822;23.564;2024-03-17T11:10:14;-11598.09;;;23.95;31.10
10145;BME280;5113;41.822;23.564;2024-03-17T11:13:26;-11577.34;;;23.20;30.99
10145;BME280;5113;41.822;23.564;2024-03-17T11:16:32;-11644.53;;;25.62;29.07
10145;BME280;5113;41.822;23.564;2024-03-17T11:19:38;-11634.78;;;25.27;29.69
10145;BME280;5113;41.822;23.564;2024-03-17T11:22:43;-11630.56;;;25.12;29.47
10145;BME280;5113;41.822;23.564;2024-03-17T11:25:52;-11604.28;;;24.17;29.44
10145;BME280;5113;41.822;23.564;2024-03-17T11:29:00;-11615.44;;;24.57;29.22
10145;BME280;5113;41.822;23.564;2024-03-17T11:32:27;-11585.38;;;23.49;29.54
10145;BME280;5113;41.822;23.564;2024-03-17T11:35:38;-11580.84;;;23.33;30.42
10145;BME280;5113;41.822;23.564;2024-03-17T11:38:55;-11565.47;;;22.78;30.26
10145;BME280;5113;41.822;23.564;2024-03-17T11:42:05;-11588.63;;;23.61;30.95
10145;BME280;5113;41.822;23.564;2024-03-17T11:45:16;-11606.84;;;24.26;30.49
10145;BME280;5113;41.822;23.564;2024-03-17T11:48:25;-11521.44;;;21.19;35.13
10145;BME280;5113;41.822;23.564;2024-03-17T11:51:34;-11558.84;;;22.54;33.99
10145;BME280;5113;41.822;23.564;2024-03-17T11:54:40;-11553.63;;;22.35;35.04
10145;BME280;5113;41.822;23.564;2024-03-17T11:57:46;-11548.97;;;22.18;35.56
10145;BME280;5113;41.822;23.564;2024-03-17T12:00:55;-11519.06;;;21.10;36.94
10145;BME280;5113;41.822;23.564;2024-03-17T12:04:01;-11548.97;;;22.18;35.78
10145;BME280;5113;41.822;23.564;2024-03-17T12:07:12;-11489.16;;;20.03;37.86
10145;BME280;5113;41.822;23.564;2024-03-17T12:10:18;-11487.59;;;19.97;38.50
10145;BME280;5113;41.822;23.564;2024-03-17T12:13:22;-11522.31;;;21.22;36.74
10145;BME280;5113;41.822;23.564;2024-03-17T12:16:30;-11506.50;;;20.65;37.67
10145;BME280;5113;41.822;23.564;2024-03-17T12:19:34;-11535.13;;;21.68;36.17
10145;BME280;5113;41.822;23.564;2024-03-17T12:22:41;-11493.38;;;20.18;37.71
10145;BME280;5113;41.822;23.564;2024-03-17T12:25:48;-11524.69;;;21.31;37.56
10145;BME280;5113;41.822;23.564;2024-03-17T12:28:52;-11512.28;;;20.86;37.90
10145;BME280;5113;41.822;23.564;2024-03-17T12:32:01;-11529.50;;;21.48;36.24
10145;BME280;5113;41.822;23.564;2024-03-17T12:35:13;-11569.28;;;22.91;35.06
10145;BME280;5113;41.822;23.564;2024-03-17T12:38:20;-11551.09;;;22.26;34.45
10145;BME280;5113;41.822;23.564;2024-03-17T12:41:25;-11550.53;;;22.24;34.20
10145;BME280;5113;41.822;23.564;2024-03-17T12:44:31;-11531.47;;;21.55;35.31
10145;BME280;5113;41.822;23.564;2024-03-17T12:47:38;-11541.22;;;21.90;35.64
10145;BME280;5113;41.822;23.564;2024-03-17T12:50:45;-11535.97;;;21.71;35.53
10145;BME280;5113;41.822;23.564;2024-03-17T12:54:14;-11544.72;;;22.03;34.38
10145;BME280;5113;41.822;23.564;2024-03-17T12:57:20;-11570.69;;;22.96;34.10
10145;BME280;5113;41.822;23.564;2024-03-17T13:00:46;-11533.31;;;21.62;34.46
10145;BME280;5113;41.822;23.564;2024-03-17T13:03:52;-11550.94;;;22.25;34.30
10145;BME280;5113;41.822;23.564;2024-03-17T13:06:58;-11563.06;;;22.69;33.58
10145;BME280;5113;41.822;23.564;2024-03-17T13:10:14;-11551.78;;;22.28;33.77
10145;BME280;5113;41.822;23.564;2024-03-17T13:13:20;-11557.56;;;22.49;34.38
10145;BME280;5113;41.822;23.564;2024-03-17T13:16:26;-11557.72;;;22.50;33.70
10145;BME280;5113;41.822;23.564;2024-03-17T13:19:33;-11560.25;;;22.59;33.37
10145;BME280;5113;41.822;23.564;2024-03-17T13:22:41;-11521.31;;;21.19;35.03
10145;BME280;5113;41.822;23.564;2024-03-17T13:25:48;-11532.19;;;21.58;34.70
10145;BME280;5113;41.822;23.564;2024-03-17T13:28:54;-11527.81;;;21.42;34.17
10145;BME280;5113;41.822;23.564;2024-03-17T13:31:59;-11533.44;;;21.62;34.78
10145;BME280;5113;41.822;23.564;2024-03-17T13:35:14;-11535.84;;;21.71;34.29
10145;BME280;5113;41.822;23.564;2024-03-17T13:38:21;-11505.50;;;20.62;34.71
10145;BME280;5113;41.822;23.564;2024-03-17T13:41:44;-11544.16;;;22.01;33.81
10145;BME280;5113;41.822;23.564;2024-03-17T13:44:51;-11551.22;;;22.26;33.95
10145;BME280;5113;41.822;23.564;2024-03-17T13:47:58;-11526.81;;;21.38;35.24
10145;BME280;5113;41.822;23.564;2024-03-17T13:51:05;-11543.03;;;21.97;34.65
10145;BME280;5113;41.822;23.564;2024-03-17T13:54:13;-11540.63;;;21.88;34.51
10145;BME280;5113;41.822;23.564;2024-03-17T13:57:18;-11575.78;;;23.15;32.76
10145;BME280;5113;41.822;23.564;2024-03-17T14:00:26;-11538.81;;;21.82;34.29
10145;BME280;5113;41.822;23.564;2024-03-17T14:03:31;-11555.75;;;22.43;33.15
10145;BME280;5113;41.822;23.564;2024-03-17T14:06:38;-11550.09;;;22.22;34.09
10145;BME280;5113;41.822;23.564;2024-03-17T14:09:44;-11576.34;;;23.17;32.71
10145;BME280;5113;41.822;23.564;2024-03-17T14:12:50;-11570.97;;;22.97;33.27
10145;BME280;5113;41.822;23.564;2024-03-17T14:15:57;-11559.25;;;22.55;33.56
10145;BME280;5113;41.822;23.564;2024-03-17T14:19:02;-11543.19;;;21.97;34.13
10145;BME280;5113;41.822;23.564;2024-03-17T14:22:09;-11495.06;;;20.24;36.33
10145;BME280;5113;41.822;23.564;2024-03-17T14:25:16;-11543.31;;;21.98;35.09
10145;BME280;5113;41.822;23.564;2024-03-17T14:28:22;-11549.25;;;22.19;34.28
10145;BME280;5113;41.822;23.564;2024-03-17T14:31:31;-11510.72;;;20.81;36.18
10145;BME280;5113;41.822;23.564;2024-03-17T14:34:39;-11533.59;;;21.63;34.84
10145;BME280;5113;41.822;23.564;2024-03-17T14:37:46;-11522.72;;;21.24;35.73
10145;BME280;5113;41.822;23.564;2024-03-17T14:40:52;-11535.41;;;21.69;34.69
10145;BME280;5113;41.822;23.564;2024-03-17T14:43:58;-11527.66;;;21.41;35.01
10145;BME280;5113;41.822;23.564;2024-03-17T14:47:04;-11534.00;;;21.64;34.78
10145;BME280;5113;41.822;23.564;2024-03-17T14:50:10;-11537.97;;;21.79;34.70
10145;BME280;5113;41.822;23.564;2024-03-17T14:53:18;-11558.44;;;22.52;33.87
10145;BME280;5113;41.822;23.564;2024-03-17T14:56:24;-11521.03;;;21.18;34.94
10145;BME280;5113;41.822;23.564;2024-03-17T14:59:29;-11522.88;;;21.24;35.10
10145;BME280;5113;41.822;23.564;2024-03-17T15:02:34;-11514.41;;;20.94;34.92
10145;BME280;5113;41.822;23.564;2024-03-17T15:05:40;-11518.22;;;21.07;34.80
10145;BME280;5113;41.822;23.564;2024-03-17T15:08:49;-11559.41;;;22.56;33.57
10145;BME280;5113;41.822;23.564;2024-03-17T15:11:54;-11547.97;;;22.15;33.81
10145;BME280;5113;41.822;23.564;2024-03-17T15:15:00;-11545.59;;;22.06;34.23
10145;BME280;5113;41.822;23.564;2024-03-17T15:18:06;-11541.63;;;21.92;34.13
10145;BME280;5113;41.822;23.564;2024-03-17T15:21:12;-11544.44;;;22.02;34.58
10145;BME280;5113;41.822;23.564;2024-03-17T15:24:19;-11508.63;;;20.73;36.38
10145;BME280;5113;41.822;23.564;2024-03-17T15:27:25;-11542.75;;;21.96;34.76
10145;BME280;5113;41.822;23.564;2024-03-17T15:30:30;-11516.78;;;21.02;36.06
10145;BME280;5113;41.822;23.564;2024-03-17T15:33:37;-11530.06;;;21.50;35.58
10145;BME280;5113;41.822;23.564;2024-03-17T15:36:44;-11489.44;;;20.04;37.33
10145;BME280;5113;41.822;23.564;2024-03-17T15:39:51;-11513.13;;;20.89;36.64
10145;BME280;5113;41.822;23.564;2024-03-17T15:42:59;-11467.72;;;19.26;37.94
10145;BME280;5113;41.822;23.564;2024-03-17T15:46:07;-11521.31;;;21.19;36.01
10145;BME280;5113;41.822;23.564;2024-03-17T15:49:12;-11500.72;;;20.44;36.63
10145;BME280;5113;41.822;23.564;2024-03-17T15:52:18;-11502.84;;;20.52;36.41
10145;BME280;5113;41.822;23.564;2024-03-17T15:55:25;-11491.13;;;20.10;36.93
10145;BME280;5113;41.822;23.564;2024-03-17T15:58:31;-11494.78;;;20.23;36.59
10145;BME280;5113;41.822;23.564;2024-03-17T16:01:37;-11500.84;;;20.45;36.66
10145;BME280;5113;41.822;23.564;2024-03-17T16:04:43;-11527.66;;;21.41;35.28
10145;BME280;5113;41.822;23.564;2024-03-17T16:07:51;-11510.44;;;20.80;35.99
10145;BME280;5113;41.822;23.564;2024-03-17T16:10:59;-11499.16;;;20.39;36.14
10145;BME280;5113;41.822;23.564;2024-03-17T16:14:06;-11509.75;;;20.77;35.63
10145;BME280;5113;41.822;23.564;2024-03-17T16:17:14;-11525.53;;;21.34;36.06